createdAt,value
2019-04-25T00:02:02.037Z,2.00
2019-04-25T00:04:31.570Z,2.30
2019-04-25T00:07:02.221Z,2.00
2019-04-25T00:09:33.304Z,2.27
2019-04-25T00:12:02.512Z,2.20
2019-04-25T00:14:32.057Z,2.10
2019-04-25T00:17:01.798Z,2.03
2019-04-25T00:19:31.699Z,2.13
2019-04-25T00:22:02.596Z,2.10
2019-04-25T00:24:43.269Z,2.07
2019-04-25T00:27:13.267Z,2.43
2019-04-25T00:29:43.938Z,2.00
2019-04-25T00:32:13.515Z,2.23
2019-04-25T00:34:44.231Z,2.20
2019-04-25T00:37:14.076Z,2.27
2019-04-25T00:39:45.042Z,2.37
2019-04-25T00:42:14.227Z,1.97
2019-04-25T00:44:44.841Z,2.10
2019-04-25T00:47:14.476Z,2.27
2019-04-25T00:49:44.878Z,2.10
2019-04-25T00:52:14.485Z,2.00
2019-04-25T00:54:44.193Z,2.33
2019-04-25T00:57:14.030Z,2.40
2019-04-25T00:59:55.079Z,2.70
2019-04-25T01:02:28.983Z,2.60
2019-04-25T01:04:58.249Z,2.30
2019-04-25T01:07:27.561Z,2.10
2019-04-25T01:09:56.885Z,2.47
2019-04-25T01:12:26.201Z,2.20
2019-04-25T01:14:55.491Z,2.30
2019-04-25T01:17:24.783Z,2.40
2019-04-25T01:19:56.938Z,2.30
2019-04-25T01:22:25.020Z,2.20
2019-04-25T01:24:55.170Z,2.13
2019-04-25T01:27:25.173Z,2.40
2019-04-25T01:29:55.300Z,2.40
2019-04-25T01:32:26.463Z,1.97
2019-04-25T01:35:00.301Z,2.87
2019-04-25T01:37:30.802Z,2.47
2019-04-25T01:40:10.636Z,2.27
2019-04-25T01:42:54.508Z,2.27
2019-04-25T01:45:25.704Z,2.63
2019-04-25T01:47:56.287Z,2.17
2019-04-25T01:50:25.654Z,2.50
2019-04-25T01:52:55.660Z,2.30
2019-04-25T01:55:25.132Z,2.20
2019-04-25T01:57:55.157Z,2.27
2019-04-25T02:00:35.671Z,2.37
2019-04-25T02:03:05.463Z,2.43
2019-04-25T02:05:34.685Z,3.10
2019-04-25T02:08:06.948Z,2.27
2019-04-25T02:10:34.908Z,2.50
2019-04-25T02:13:08.597Z,2.57
2019-04-25T02:15:37.895Z,2.40
2019-04-25T02:18:07.199Z,2.60
2019-04-25T02:20:36.585Z,2.60
2019-04-25T02:23:05.890Z,2.80
2019-04-25T02:25:35.095Z,2.60
2019-04-25T02:28:06.257Z,2.83
2019-04-25T02:30:35.852Z,3.07
2019-04-25T02:33:08.825Z,3.33
2019-04-25T02:35:36.088Z,3.17
2019-04-25T02:38:08.920Z,3.20
2019-04-25T02:40:36.295Z,3.03
2019-04-25T02:43:08.035Z,3.27
2019-04-25T02:45:38.205Z,3.97
2019-04-25T02:48:25.020Z,3.40
2019-04-25T02:51:10.603Z,2.90
2019-04-25T02:53:44.475Z,3.53
2019-04-25T02:56:29.403Z,2.70
2019-04-25T02:58:44.268Z,3.30
2019-04-25T03:01:22.277Z,3.03
2019-04-25T03:03:47.368Z,3.30
2019-04-25T03:06:16.759Z,3.00
2019-04-25T03:08:46.051Z,3.67
2019-04-25T03:11:15.469Z,2.77
2019-04-25T03:13:44.858Z,2.90
2019-04-25T03:16:14.269Z,3.20
2019-04-25T03:18:54.567Z,3.03
2019-04-25T03:21:28.223Z,2.80
2019-04-25T03:23:58.447Z,3.17
2019-04-25T03:26:37.973Z,3.13
2019-04-25T03:28:59.812Z,3.23
2019-04-25T03:31:29.015Z,3.00
2019-04-25T03:33:58.624Z,2.53
2019-04-25T03:36:27.920Z,2.77
2019-04-25T03:38:57.165Z,2.57
2019-04-25T03:41:26.424Z,3.23
2019-04-25T03:43:55.641Z,2.97
2019-04-25T03:46:24.924Z,2.87
2019-04-25T03:48:54.114Z,3.07
2019-04-25T03:51:24.013Z,2.83
2019-04-25T03:53:53.635Z,2.93
2019-04-25T03:56:22.850Z,2.83
2019-04-25T03:58:52.076Z,2.60
2019-04-25T04:01:21.247Z,2.90
2019-04-25T04:03:50.456Z,2.83
2019-04-25T04:06:19.649Z,2.70
2019-04-25T04:08:48.931Z,2.97
2019-04-25T04:11:18.136Z,3.00
2019-04-25T04:13:47.330Z,3.10
2019-04-25T04:16:18.198Z,2.30
2019-04-25T04:18:49.341Z,2.83
2019-04-25T04:21:33.283Z,3.10
2019-04-25T04:24:14.116Z,2.70
2019-04-25T04:26:45.800Z,2.73
2019-04-25T04:29:15.274Z,3.27
2019-04-25T04:31:44.518Z,2.70
2019-04-25T04:34:33.638Z,2.97
2019-04-25T04:37:03.731Z,3.47
2019-04-25T04:39:33.830Z,2.60
2019-04-25T04:42:03.829Z,2.67
2019-04-25T04:44:34.310Z,3.13
2019-04-25T04:47:04.114Z,2.93
2019-04-25T04:49:34.121Z,2.77
2019-04-25T04:52:06.142Z,2.70
2019-04-25T04:54:34.596Z,2.60
2019-04-25T04:57:16.627Z,3.00
2019-04-25T04:59:34.754Z,2.53
2019-04-25T05:02:12.273Z,2.93
2019-04-25T05:04:55.572Z,2.97
2019-04-25T05:07:38.498Z,2.97
2019-04-25T05:10:08.099Z,2.83
2019-04-25T05:12:37.307Z,2.90
2019-04-25T05:15:08.244Z,2.90
2019-04-25T05:17:40.552Z,2.77
2019-04-25T05:20:10.128Z,2.57
2019-04-25T05:22:39.303Z,2.70
2019-04-25T05:25:09.052Z,2.90
2019-04-25T05:27:56.901Z,3.00
2019-04-25T05:30:14.367Z,2.83
2019-04-25T05:32:44.206Z,2.73
2019-04-25T05:35:14.955Z,2.43
2019-04-25T05:37:44.488Z,2.97
2019-04-25T05:40:15.796Z,2.33
2019-04-25T05:42:46.520Z,2.40
2019-04-25T05:45:18.572Z,2.43
2019-04-25T05:47:47.938Z,2.37
2019-04-25T05:50:17.874Z,2.30
2019-04-25T05:52:47.108Z,3.10
2019-04-25T05:55:18.947Z,2.27
2019-04-25T05:57:50.007Z,2.87
2019-04-25T06:00:19.049Z,2.60
2019-04-25T06:02:48.268Z,2.30
2019-04-25T06:05:17.517Z,2.70
2019-04-25T06:07:46.698Z,2.50
2019-04-25T06:10:18.115Z,2.50
2019-04-25T06:12:48.977Z,2.30
2019-04-25T06:15:20.009Z,2.50
2019-04-25T06:17:50.867Z,2.10
2019-04-25T06:20:24.655Z,2.70
2019-04-25T06:22:56.299Z,2.80
2019-04-25T06:25:30.527Z,2.93
2019-04-25T06:28:05.390Z,2.63
2019-04-25T06:30:35.453Z,2.73
2019-04-25T06:33:04.800Z,2.93
2019-04-25T06:35:35.867Z,2.77
2019-04-25T06:38:05.199Z,1.83
2019-04-25T06:40:34.614Z,2.63
2019-04-25T06:43:04.147Z,2.40
2019-04-25T06:45:37.752Z,2.63
2019-04-25T06:48:11.232Z,2.33
2019-04-25T06:50:40.353Z,2.73
2019-04-25T06:53:09.566Z,2.20
2019-04-25T06:55:38.838Z,2.20
2019-04-25T06:58:11.721Z,2.70
2019-04-25T07:00:42.651Z,2.57
2019-04-25T07:03:10.166Z,2.53
2019-04-25T07:05:40.684Z,2.73
2019-04-25T07:08:10.061Z,2.20
2019-04-25T07:10:39.212Z,2.07
2019-04-25T07:13:08.403Z,2.50
2019-04-25T07:15:37.623Z,2.53
2019-04-25T07:18:06.934Z,2.23
2019-04-25T07:20:36.138Z,2.37
2019-04-25T07:23:05.487Z,2.83
2019-04-25T07:25:36.709Z,2.33
2019-04-25T07:28:28.526Z,2.27
2019-04-25T07:31:09.211Z,2.70
2019-04-25T07:33:40.167Z,2.30
2019-04-25T07:36:09.483Z,2.70
2019-04-25T07:38:38.676Z,2.60
2019-04-25T07:41:08.038Z,2.80
2019-04-25T07:43:37.275Z,2.77
2019-04-25T07:46:06.489Z,2.60
2019-04-25T07:48:37.096Z,2.37
2019-04-25T07:51:06.679Z,2.67
2019-04-25T07:53:36.166Z,1.93
2019-04-25T07:56:05.518Z,2.40
2019-04-25T07:58:49.594Z,2.20
2019-04-25T08:01:14.154Z,2.07
2019-04-25T08:03:43.952Z,2.23
2019-04-25T08:06:13.700Z,2.50
2019-04-25T08:08:43.622Z,1.90
2019-04-25T08:11:14.043Z,3.03
2019-04-25T08:13:45.114Z,3.00
2019-04-25T08:16:19.653Z,2.33
2019-04-25T08:18:49.812Z,2.93
2019-04-25T08:21:19.075Z,2.87
2019-04-25T08:23:49.583Z,2.90
2019-04-25T08:26:18.901Z,2.93
2019-04-25T08:28:54.390Z,2.87
2019-04-25T08:31:19.042Z,2.40
2019-04-25T08:33:48.330Z,2.10
2019-04-25T08:36:17.539Z,2.73
2019-04-25T08:38:46.770Z,2.40
2019-04-25T08:41:16.020Z,2.30
2019-04-25T08:43:45.561Z,2.53
2019-04-25T08:46:14.744Z,2.23
2019-04-25T08:49:02.416Z,2.43
2019-04-25T08:51:40.124Z,2.07
2019-04-25T08:54:11.150Z,1.93
2019-04-25T08:56:40.383Z,2.20
2019-04-25T08:59:17.314Z,1.80
2019-04-25T09:01:50.595Z,2.47
2019-04-25T09:04:27.196Z,1.97
2019-04-25T09:06:56.470Z,2.10
2019-04-25T09:09:26.088Z,1.80
2019-04-25T09:11:55.471Z,1.83
2019-04-25T09:14:24.675Z,2.10
2019-04-25T09:16:53.958Z,2.13
2019-04-25T09:19:24.145Z,2.00
2019-04-25T09:21:54.297Z,2.10
2019-04-25T09:24:24.597Z,2.20
2019-04-25T09:26:54.160Z,2.03
2019-04-25T09:29:23.583Z,2.20
2019-04-25T09:31:53.736Z,1.70
2019-04-25T09:34:23.792Z,2.20
2019-04-25T09:36:53.600Z,1.80
2019-04-25T09:39:24.541Z,1.70
2019-04-25T09:41:53.784Z,1.60
2019-04-25T09:44:24.644Z,1.60
2019-04-25T09:46:54.436Z,2.20
2019-04-25T09:49:27.893Z,1.80
2019-04-25T09:52:13.608Z,1.97
2019-04-25T09:54:45.196Z,1.77
2019-04-25T09:57:28.024Z,1.90
2019-04-25T09:59:57.256Z,2.10
2019-04-25T10:02:26.696Z,2.90
2019-04-25T10:04:55.989Z,2.23
2019-04-25T10:07:25.273Z,2.27
2019-04-25T10:09:54.781Z,2.30
2019-04-25T10:12:23.965Z,1.80
2019-04-25T10:14:56.305Z,1.90
2019-04-25T10:17:25.561Z,2.10
2019-04-25T10:19:55.040Z,1.97
2019-04-25T10:22:24.328Z,2.03
2019-04-25T10:25:00.424Z,2.27
2019-04-25T10:27:24.607Z,2.10
2019-04-25T10:29:57.069Z,2.20
2019-04-25T10:32:24.954Z,2.10
2019-04-25T10:34:54.356Z,2.03
2019-04-25T10:37:23.620Z,2.50
2019-04-25T10:39:55.251Z,2.00
2019-04-25T10:42:23.997Z,2.00
2019-04-25T10:44:54.485Z,2.30
2019-04-25T10:47:24.240Z,2.30
2019-04-25T10:49:55.467Z,2.30
2019-04-25T10:52:24.651Z,2.20
2019-04-25T10:54:54.273Z,2.17
2019-04-25T10:57:24.903Z,2.10
2019-04-25T11:00:05.892Z,2.33
2019-04-25T11:02:25.884Z,2.60
2019-04-25T11:04:56.745Z,2.40
2019-04-25T11:07:26.020Z,2.33
2019-04-25T11:09:55.310Z,1.80
2019-04-25T11:12:24.926Z,1.97
2019-04-25T11:14:55.941Z,2.67
2019-04-25T11:17:25.137Z,2.70
2019-04-25T11:19:55.469Z,2.00
2019-04-25T11:22:24.685Z,2.43
2019-04-25T11:24:53.885Z,2.20
2019-04-25T11:27:23.967Z,2.50
2019-04-25T11:30:08.013Z,2.23
2019-04-25T11:32:26.980Z,2.33
2019-04-25T11:34:57.273Z,2.13
2019-04-25T11:37:28.134Z,2.80
2019-04-25T11:39:58.980Z,2.40
2019-04-25T11:42:28.704Z,2.27
2019-04-25T11:44:58.000Z,2.60
2019-04-25T11:47:27.287Z,2.13
2019-04-25T11:49:56.490Z,2.40
2019-04-25T11:52:28.178Z,2.60
2019-04-25T11:54:56.844Z,2.20
2019-04-25T11:57:26.032Z,2.17
2019-04-25T11:59:55.826Z,2.10
2019-04-25T12:02:26.070Z,2.57
2019-04-25T12:04:55.373Z,2.60
2019-04-25T12:07:24.679Z,2.40
2019-04-25T12:09:54.562Z,2.80
2019-04-25T12:12:24.801Z,2.30
2019-04-25T12:14:55.391Z,2.17
2019-04-25T12:17:24.656Z,2.37
2019-04-25T12:19:54.986Z,2.23
2019-04-25T12:22:24.985Z,2.50
2019-04-25T12:24:55.606Z,2.63
2019-04-25T12:27:25.521Z,1.80
2019-04-25T12:29:54.718Z,2.43
2019-04-25T12:32:23.928Z,1.90
2019-04-25T12:34:53.688Z,2.73
2019-04-25T12:37:25.056Z,2.00
2019-04-25T12:39:55.958Z,2.33
2019-04-25T12:42:25.224Z,2.23
2019-04-25T12:44:59.110Z,2.10
2019-04-25T12:47:38.752Z,2.60
2019-04-25T12:50:08.726Z,2.60
2019-04-25T12:52:37.986Z,2.67
2019-04-25T12:55:07.704Z,2.77
2019-04-25T12:57:36.941Z,2.80
2019-04-25T13:00:07.333Z,3.10
2019-04-25T13:02:36.712Z,2.70
2019-04-25T13:05:07.126Z,3.33
2019-04-25T13:07:36.497Z,3.10
2019-04-25T13:10:07.427Z,2.90
2019-04-25T13:12:36.695Z,3.27
2019-04-25T13:15:06.832Z,2.67
2019-04-25T13:17:36.119Z,2.47
2019-04-25T13:20:07.797Z,2.63
2019-04-25T13:22:37.184Z,1.90
2019-04-25T13:25:08.426Z,2.00
2019-04-25T13:27:58.530Z,1.90
2019-04-25T13:30:35.515Z,1.57
2019-04-25T13:33:23.595Z,2.20
2019-04-25T13:35:59.956Z,2.20
2019-04-25T13:38:29.209Z,2.10
2019-04-25T13:40:59.247Z,1.90
2019-04-25T13:43:28.630Z,2.40
2019-04-25T13:45:58.033Z,2.10
2019-04-25T13:48:28.011Z,2.33
2019-04-25T13:50:57.439Z,2.03
2019-04-25T13:53:27.385Z,2.23
2019-04-25T13:55:57.883Z,2.30
2019-04-25T13:58:30.512Z,2.70
2019-04-25T14:00:58.894Z,2.10
2019-04-25T14:03:28.164Z,2.80
2019-04-25T14:05:57.341Z,2.60
2019-04-25T14:08:26.997Z,2.50
2019-04-25T14:10:56.322Z,2.53
2019-04-25T14:13:26.519Z,2.37
2019-04-25T14:15:59.976Z,1.87
2019-04-25T14:18:45.915Z,2.00
2019-04-25T14:21:16.876Z,1.53
2019-04-25T14:23:46.105Z,1.17
2019-04-25T14:26:15.467Z,1.00
2019-04-25T14:28:44.704Z,1.53
2019-04-25T14:31:30.568Z,0.90
2019-04-25T14:33:47.689Z,1.40
2019-04-25T14:36:17.015Z,1.20
2019-04-25T14:38:46.260Z,1.60
2019-04-25T14:41:15.600Z,2.03
2019-04-25T14:43:46.427Z,1.53
2019-04-25T14:46:15.795Z,1.80
2019-04-25T14:48:45.063Z,2.03
2019-04-25T14:51:14.394Z,1.67
2019-04-25T14:53:43.624Z,2.00
2019-04-25T14:56:30.300Z,2.03
2019-04-25T14:59:00.490Z,2.30
2019-04-25T15:01:30.162Z,2.50
2019-04-25T15:03:59.640Z,2.40
2019-04-25T15:06:29.747Z,2.20
2019-04-25T15:08:58.909Z,1.90
2019-04-25T15:11:29.066Z,2.10
2019-04-25T15:13:58.309Z,1.80
2019-04-25T15:16:27.590Z,2.00
2019-04-25T15:18:56.869Z,1.73
2019-04-25T15:21:26.266Z,1.90
2019-04-25T15:24:00.348Z,1.60
2019-04-25T15:26:26.864Z,1.80
2019-04-25T15:28:56.087Z,2.20
2019-04-25T15:31:25.687Z,1.33
2019-04-25T15:33:54.878Z,1.50
2019-04-25T15:36:35.617Z,2.00
2019-04-25T15:39:20.978Z,1.67
2019-04-25T15:42:06.329Z,1.80
2019-04-25T15:44:36.439Z,2.30
2019-04-25T15:47:07.318Z,2.00
2019-04-25T15:49:37.001Z,2.13
2019-04-25T15:52:06.925Z,2.10
2019-04-25T15:54:36.149Z,2.20
2019-04-25T15:57:06.219Z,2.30
2019-04-25T15:59:35.515Z,2.00
2019-04-25T16:02:08.302Z,2.17
2019-04-25T16:04:37.462Z,2.10
2019-04-25T16:07:07.241Z,1.97
2019-04-25T16:09:36.733Z,1.57
2019-04-25T16:12:06.020Z,1.50
2019-04-25T16:14:35.605Z,1.73
2019-04-25T16:17:04.835Z,2.00
2019-04-25T16:19:34.755Z,1.77
2019-04-25T16:22:04.811Z,1.60
2019-04-25T16:24:34.407Z,1.70
2019-04-25T16:27:04.697Z,1.60
2019-04-25T16:29:33.892Z,1.80
2019-04-25T16:32:04.843Z,1.80
2019-04-25T16:34:34.243Z,1.50
2019-04-25T16:37:03.563Z,1.40
2019-04-25T16:39:35.148Z,1.50
2019-04-25T16:42:04.484Z,1.60
2019-04-25T16:44:34.003Z,1.47
2019-04-25T16:47:03.530Z,1.40
2019-04-25T16:49:32.777Z,1.50
2019-04-25T16:52:02.203Z,1.60
2019-04-25T16:54:31.615Z,1.30
2019-04-25T16:57:00.910Z,1.30
2019-04-25T16:59:30.144Z,1.50
2019-04-25T17:01:59.477Z,1.33
2019-04-25T17:04:29.785Z,1.50
2019-04-25T17:06:59.347Z,1.70
2019-04-25T17:09:30.348Z,1.67
2019-04-25T17:11:59.762Z,1.53
2019-04-25T17:14:48.719Z,1.90
2019-04-25T17:17:19.746Z,2.23
2019-04-25T17:19:53.174Z,2.50
2019-04-25T17:22:23.198Z,2.23
2019-04-25T17:24:52.406Z,2.07
2019-04-25T17:27:22.384Z,2.43
2019-04-25T17:29:51.715Z,2.70
2019-04-25T17:32:48.444Z,2.63
2019-04-25T17:35:10.490Z,2.47
2019-04-25T17:37:47.376Z,2.20
2019-04-25T17:40:21.169Z,1.80
2019-04-25T17:42:50.487Z,1.90
2019-04-25T17:45:23.971Z,1.97
2019-04-25T17:47:54.987Z,1.67
2019-04-25T17:50:24.189Z,2.13
2019-04-25T17:52:53.413Z,1.40
2019-04-25T17:55:22.768Z,1.40
2019-04-25T17:57:51.925Z,1.40
2019-04-25T18:00:26.073Z,1.00
2019-04-25T18:02:58.865Z,1.70
2019-04-25T18:05:26.259Z,1.40
2019-04-25T18:07:55.468Z,1.43
2019-04-25T18:10:24.815Z,1.30
2019-04-25T18:12:54.229Z,1.37
2019-04-25T18:15:31.360Z,1.50
2019-04-25T18:18:02.195Z,1.40
2019-04-25T18:20:36.737Z,1.40
2019-04-25T18:23:10.513Z,1.30
2019-04-25T18:25:57.905Z,1.00
2019-04-25T18:28:37.798Z,1.20
2019-04-25T18:31:07.969Z,0.93
2019-04-25T18:33:37.324Z,1.07
2019-04-25T18:36:24.708Z,1.50
2019-04-25T18:39:05.008Z,0.97
2019-04-25T18:41:36.399Z,1.03
2019-04-25T18:44:10.467Z,1.17
2019-04-25T18:46:41.321Z,1.17
2019-04-25T18:49:10.500Z,1.40
2019-04-25T18:51:40.624Z,0.93
2019-04-25T18:54:17.291Z,1.03
2019-04-25T18:56:50.826Z,1.57
2019-04-25T18:59:24.756Z,1.23
2019-04-25T19:02:01.406Z,1.47
2019-04-25T19:04:41.809Z,1.30
2019-04-25T19:07:22.040Z,1.30
2019-04-25T19:09:42.882Z,1.63
2019-04-25T19:12:12.317Z,1.40
2019-04-25T19:14:43.104Z,1.53
2019-04-25T19:17:12.378Z,1.57
2019-04-25T19:19:41.649Z,1.90
2019-04-25T19:22:10.909Z,1.53
2019-04-25T19:24:43.581Z,1.80
2019-04-25T19:27:23.009Z,1.70
2019-04-25T19:29:41.956Z,1.83
2019-04-25T19:32:11.173Z,1.90
2019-04-25T19:34:41.242Z,2.23
2019-04-25T19:37:10.845Z,2.07
2019-04-25T19:39:42.784Z,2.03
2019-04-25T19:42:19.518Z,2.27
2019-04-25T19:44:49.220Z,1.87
2019-04-25T19:47:20.766Z,1.97
2019-04-25T19:49:50.030Z,1.97
2019-04-25T19:52:19.277Z,1.80
2019-04-25T19:54:49.437Z,2.33
2019-04-25T19:57:18.658Z,2.20
2019-04-25T19:59:48.467Z,2.17
2019-04-25T20:02:22.114Z,1.90
2019-04-25T20:04:56.091Z,2.27
2019-04-25T20:07:33.160Z,2.20
2019-04-25T20:10:07.068Z,2.10
2019-04-25T20:12:38.010Z,2.13
2019-04-25T20:15:08.664Z,2.07
2019-04-25T20:17:37.876Z,2.13
2019-04-25T20:20:07.561Z,2.17
2019-04-25T20:22:36.840Z,2.37
2019-04-25T20:25:07.142Z,2.27
2019-04-25T20:27:36.374Z,2.50
2019-04-25T20:30:07.135Z,2.20
2019-04-25T20:32:36.426Z,2.20
2019-04-25T20:35:05.884Z,2.17
2019-04-25T20:37:35.130Z,2.03
2019-04-25T20:40:05.887Z,2.23
2019-04-25T20:42:35.240Z,2.10
2019-04-25T20:45:07.014Z,2.30
2019-04-25T20:47:36.373Z,2.30
2019-04-25T20:50:06.641Z,2.20
2019-04-25T20:52:38.044Z,2.20
2019-04-25T20:55:08.112Z,2.23
2019-04-25T20:57:37.387Z,3.00
2019-04-25T21:00:08.530Z,2.40
2019-04-25T21:02:37.757Z,2.50
2019-04-25T21:05:07.508Z,2.53
2019-04-25T21:07:36.769Z,2.40
2019-04-25T21:10:07.398Z,2.63
2019-04-25T21:12:36.742Z,3.17
2019-04-25T21:15:15.386Z,3.00
2019-04-25T21:17:56.303Z,2.93
2019-04-25T21:20:25.605Z,3.17
2019-04-25T21:22:55.821Z,2.60
2019-04-25T21:25:25.145Z,3.33
2019-04-25T21:27:54.517Z,2.83
2019-04-25T21:30:23.833Z,3.20
2019-04-25T21:32:55.851Z,2.97
2019-04-25T21:35:25.789Z,3.20
2019-04-25T21:37:55.427Z,2.90
2019-04-25T21:40:32.392Z,3.00
2019-04-25T21:43:10.524Z,3.00
2019-04-25T21:45:40.122Z,3.83
2019-04-25T21:48:09.569Z,3.73
2019-04-25T21:50:39.224Z,3.70
2019-04-25T21:53:08.906Z,3.10
2019-04-25T21:55:38.436Z,3.00
2019-04-25T21:58:08.040Z,3.30
2019-04-25T22:00:44.663Z,3.63
2019-04-25T22:03:15.937Z,3.30
2019-04-25T22:05:45.211Z,3.67
2019-04-25T22:08:14.365Z,3.30
2019-04-25T22:10:43.767Z,3.80
2019-04-25T22:13:17.079Z,3.80
2019-04-25T22:16:02.169Z,4.10
2019-04-25T22:18:33.262Z,3.00
2019-04-25T22:21:02.639Z,3.27
2019-04-25T22:23:31.895Z,3.37
2019-04-25T22:26:01.417Z,3.67
2019-04-25T22:28:31.241Z,4.03
2019-04-25T22:31:08.144Z,3.53
2019-04-25T22:33:42.836Z,3.80
2019-04-25T22:36:13.812Z,3.77
2019-04-25T22:38:43.045Z,4.93
2019-04-25T22:41:12.333Z,4.00
2019-04-25T22:43:43.451Z,3.87
2019-04-25T22:46:25.276Z,3.87
2019-04-25T22:48:48.650Z,3.93
2019-04-25T22:51:18.049Z,3.57
2019-04-25T22:53:47.996Z,3.37
2019-04-25T22:56:17.252Z,3.83
2019-04-25T22:58:46.715Z,3.60
2019-04-25T23:01:34.030Z,3.60
2019-04-25T23:04:10.622Z,3.00
2019-04-25T23:06:40.790Z,3.40
2019-04-25T23:09:10.232Z,3.57
2019-04-25T23:11:39.474Z,3.50
2019-04-25T23:14:08.924Z,3.80
2019-04-25T23:16:38.922Z,3.20
2019-04-25T23:19:08.252Z,3.50
2019-04-25T23:21:38.428Z,3.40
2019-04-25T23:24:08.044Z,3.67
2019-04-25T23:26:39.322Z,4.00
2019-04-25T23:29:10.231Z,3.57
2019-04-25T23:31:41.078Z,3.30
2019-04-25T23:34:10.872Z,3.37
2019-04-25T23:36:40.253Z,3.97
2019-04-25T23:39:11.241Z,4.30
2019-04-25T23:41:40.678Z,4.07
2019-04-25T23:44:10.108Z,3.80
2019-04-25T23:46:39.831Z,3.50
2019-04-25T23:49:09.059Z,3.60
2019-04-25T23:51:38.314Z,3.33
2019-04-25T23:54:07.646Z,3.70
2019-04-25T23:56:38.014Z,3.73
2019-04-25T23:59:08.854Z,3.60
